Wetterdaten: Woche 15.09.14 - 21.09.14 (KW38)
Datum Zeit Temp. A. Feuchte A. Luftdruck Regen Wind Richtung Taupunkt Windchill Windben
15.09.2014 00:00 16,1 C 83 % 1015,8 hPa 0,0 l/m 3,3 km/h N 13,3 C 16,1 C 10,1 km/h
15.09.2014 01:00 16,0 C 83 % 1015,8 hPa 0,0 l/m 2,0 km/h N 13,1 C 16,0 C 9,3 km/h
15.09.2014 02:00 15,9 C 83 % 1015,9 hPa 0,0 l/m 0,2 km/h N 13,1 C 15,9 C 3,6 km/h
15.09.2014 03:00 16,0 C 83 % 1015,9 hPa 0,0 l/m 1,5 km/h N 13,1 C 16,0 C 7,6 km/h
15.09.2014 04:00 16,0 C 84 % 1015,9 hPa 0,0 l/m 1,3 km/h N 13,3 C 16,0 C 6,4 km/h
15.09.2014 05:00 15,6 C 84 % 1016,0 hPa 0,0 l/m 1,3 km/h N 12,9 C 15,6 C 7,6 km/h
15.09.2014 06:00 15,5 C 83 % 1016,1 hPa 0,0 l/m 0,7 km/h N 12,6 C 15,5 C 6,8 km/h
15.09.2014 07:00 15,7 C 83 % 1016,3 hPa 0,0 l/m 0,7 km/h N 12,8 C 15,7 C 3,6 km/h
15.09.2014 08:00 16,0 C 83 % 1016,6 hPa 0,0 l/m 1,0 km/h N 13,1 C 16,0 C 5,6 km/h
15.09.2014 09:00 16,2 C 83 % 1016,9 hPa 0,0 l/m 1,0 km/h N 13,3 C 16,2 C 5,2 km/h
15.09.2014 10:00 16,9 C 84 % 1017,1 hPa 0,0 l/m 1,2 km/h N 14,1 C 16,9 C 6,8 km/h
15.09.2014 11:00 17,2 C 84 % 1017,0 hPa 0,0 l/m 2,0 km/h N 14,5 C 17,2 C 9,6 km/h
15.09.2014 12:00 18,2 C 84 % 1017,1 hPa 0,0 l/m 1,2 km/h N 15,4 C 18,2 C 6,8 km/h
15.09.2014 13:00 19,6 C 80 % 1016,8 hPa 0,0 l/m 0,5 km/h N 16,1 C 19,6 C 4,4 km/h
15.09.2014 14:00 20,5 C 79 % 1016,9 hPa 0,0 l/m 0,5 km/h N 16,7 C 20,5 C 5,2 km/h
15.09.2014 15:00 19,8 C 79 % 1016,7 hPa 0,0 l/m 0,7 km/h N 16,0 C 19,8 C 5,2 km/h
15.09.2014 16:00 19,9 C 78 % 1016,5 hPa 0,0 l/m 0,5 km/h N 15,9 C 19,9 C 5,2 km/h
15.09.2014 17:00 20,2 C 78 % 1016,4 hPa 0,0 l/m 0,6 km/h N 16,1 C 20,2 C 4,8 km/h
15.09.2014 18:00 19,7 C 77 % 1016,5 hPa 0,0 l/m 0,1 km/h N 15,5 C 19,7 C 1,6 km/h
15.09.2014 19:00 18,1 C 80 % 1016,8 hPa 0,0 l/m 0,0 km/h N 14,5 C 18,1 C 0,0 km/h
15.09.2014 20:00 16,6 C 82 % 1017,4 hPa 0,0 l/m 0,0 km/h N 13,6 C 16,6 C 0,0 km/h
15.09.2014 21:00 15,7 C 84 % 1017,6 hPa 0,0 l/m 0,0 km/h N 13,0 C 15,7 C 0,0 km/h
15.09.2014 22:00 15,4 C 84 % 1017,4 hPa 0,0 l/m 0,0 km/h N 12,7 C 15,4 C 0,0 km/h
15.09.2014 23:00 15,2 C 83 % 1017,5 hPa 0,0 l/m 0,1 km/h N 12,4 C 15,2 C 0,8 km/h
16.09.2014 00:00 14,9 C 83 % 1017,3 hPa 0,0 l/m 0,0 km/h N 12,0 C 14,9 C 0,8 km/h
16.09.2014 01:00 14,5 C 82 % 1017,3 hPa 0,0 l/m 0,0 km/h N 11,5 C 14,5 C 0,0 km/h
16.09.2014 02:00 13,8 C 82 % 1017,3 hPa 0,0 l/m 0,0 km/h N 10,8 C 13,8 C 0,0 km/h
16.09.2014 03:00 13,8 C 82 % 1017,4 hPa 0,0 l/m 0,0 km/h N 10,6 C 13,8 C 0,0 km/h
16.09.2014 04:00 13,5 C 81 % 1017,3 hPa 0,0 l/m 0,0 km/h N 10,4 C 13,5 C 0,0 km/h
16.09.2014 05:00 13,8 C 80 % 1017,4 hPa 0,0 l/m 0,0 km/h N 10,4 C 13,8 C 0,0 km/h
16.09.2014 06:00 13,8 C 80 % 1017,5 hPa 0,0 l/m 0,0 km/h N 10,4 C 13,8 C 0,0 km/h
16.09.2014 07:00 13,9 C 80 % 1017,8 hPa 0,0 l/m 0,0 km/h N 10,5 C 13,9 C 0,0 km/h
16.09.2014 08:00 14,8 C 79 % 1018,0 hPa 0,0 l/m 0,0 km/h N 11,1 C 14,8 C 0,0 km/h
16.09.2014 09:00 16,1 C 78 % 1018,2 hPa 0,0 l/m 0,2 km/h N 12,3 C 16,1 C 2,8 km/h
16.09.2014 10:00 16,6 C 80 % 1018,5 hPa 0,0 l/m 0,8 km/h N 13,1 C 16,6 C 3,2 km/h
16.09.2014 11:00 17,6 C 83 % 1018,7 hPa 0,0 l/m 0,8 km/h N 14,6 C 17,6 C 4,8 km/h
16.09.2014 12:00 18,8 C 81 % 1018,7 hPa 0,0 l/m 1,8 km/h N 15,4 C 18,8 C 8,4 km/h
16.09.2014 13:00 19,7 C 77 % 1018,5 hPa 0,0 l/m 1,6 km/h N 15,5 C 19,7 C 9,7 km/h
16.09.2014 14:00 20,2 C 74 % 1018,1 hPa 0,0 l/m 1,4 km/h N 15,4 C 20,2 C 8,8 km/h
16.09.2014 15:00 20,1 C 75 % 1017,9 hPa 0,0 l/m 1,7 km/h N 15,4 C 20,1 C 9,3 km/h
16.09.2014 16:00 20,1 C 73 % 1017,7 hPa 0,0 l/m 1,5 km/h N 15,2 C 20,1 C 8,4 km/h
16.09.2014 17:00 19,6 C 76 % 1017,6 hPa 0,0 l/m 1,4 km/h N 15,1 C 19,6 C 7,6 km/h
16.09.2014 18:00 18,9 C 79 % 1017,6 hPa 0,0 l/m 0,6 km/h N 15,1 C 18,9 C 6,8 km/h
16.09.2014 19:00 18,2 C 81 % 1017,8 hPa 0,0 l/m 0,5 km/h N 14,9 C 18,2 C 4,4 km/h
16.09.2014 20:00 17,4 C 83 % 1018,3 hPa 0,0 l/m 0,3 km/h N 14,4 C 17,4 C 3,2 km/h
16.09.2014 21:00 16,8 C 84 % 1018,5 hPa 0,0 l/m 0,8 km/h N 14,1 C 16,8 C 4,4 km/h
16.09.2014 22:00 16,6 C 84 % 1018,5 hPa 0,0 l/m 0,5 km/h N 13,9 C 16,6 C 4,0 km/h
16.09.2014 23:00 15,6 C 84 % 1018,5 hPa 0,0 l/m 0,0 km/h N 12,9 C 15,6 C 0,0 km/h
17.09.2014 00:00 14,3 C 85 % 1018,1 hPa 0,0 l/m 0,0 km/h N 11,7 C 14,3 C 0,0 km/h
17.09.2014 01:00 13,6 C 85 % 1018,1 hPa 0,0 l/m 0,0 km/h N 11,1 C 13,6 C 0,0 km/h
17.09.2014 02:00 13,0 C 84 % 1018,1 hPa 0,0 l/m 0,0 km/h N 10,4 C 13,0 C 0,0 km/h
17.09.2014 03:00 12,2 C 84 % 1018,0 hPa 0,0 l/m 0,0 km/h N 9,6 C 12,2 C 0,0 km/h
17.09.2014 04:00 11,5 C 84 % 1017,9 hPa 0,0 l/m 0,0 km/h N 8,9 C 11,5 C 0,0 km/h
17.09.2014 05:00 11,3 C 83 % 1017,6 hPa 0,0 l/m 0,0 km/h N 8,5 C 11,3 C 0,0 km/h
17.09.2014 06:00 12,0 C 82 % 1017,7 hPa 0,3 l/m 0,0 km/h N 9,0 C 12,0 C 0,0 km/h
17.09.2014 07:00 11,8 C 81 % 1018,1 hPa 0,0 l/m 0,0 km/h N 8,7 C 11,8 C 0,0 km/h
17.09.2014 08:00 12,6 C 79 % 1018,4 hPa 0,0 l/m 0,2 km/h N 9,1 C 12,6 C 2,4 km/h
17.09.2014 09:00 14,8 C 78 % 1018,6 hPa 0,0 l/m 1,1 km/h N 11,0 C 14,8 C 6,4 km/h
17.09.2014 10:00 17,5 C 82 % 1018,4 hPa 0,0 l/m 2,8 km/h N 14,4 C 17,5 C 10,9 km/h
17.09.2014 11:00 20,2 C 73 % 1017,9 hPa 0,0 l/m 5,5 km/h N 15,2 C 20,2 C 15,7 km/h
17.09.2014 12:00 21,7 C 66 % 1017,6 hPa 0,0 l/m 5,3 km/h N 15,1 C 21,7 C 16,5 km/h
17.09.2014 13:00 22,3 C 62 % 1017,3 hPa 0,0 l/m 7,1 km/h N 14,6 C 21,9 C 20,9 km/h
17.09.2014 14:00 22,5 C 57 % 1017,0 hPa 0,0 l/m 6,9 km/h N 13,4 C 22,3 C 19,7 km/h
17.09.2014 15:00 22,1 C 57 % 1016,6 hPa 0,0 l/m 7,7 km/h N 13,0 C 21,7 C 21,7 km/h
17.09.2014 16:00 21,7 C 59 % 1016,5 hPa 0,0 l/m 7,1 km/h N 13,2 C 21,3 C 22,5 km/h
17.09.2014 17:00 21,0 C 59 % 1016,6 hPa 0,0 l/m 6,8 km/h N 12,8 C 20,9 C 20,5 km/h
17.09.2014 18:00 20,1 C 64 % 1016,6 hPa 0,0 l/m 4,2 km/h N 13,0 C 20,1 C 16,1 km/h
17.09.2014 19:00 18,7 C 70 % 1016,8 hPa 0,0 l/m 2,8 km/h N 13,1 C 18,7 C 12,1 km/h
17.09.2014 20:00 17,4 C 75 % 1017,1 hPa 0,0 l/m 0,7 km/h N 13,0 C 17,4 C 6,0 km/h
17.09.2014 21:00 16,0 C 79 % 1017,2 hPa 0,0 l/m 0,0 km/h N 12,3 C 16,0 C 0,4 km/h
17.09.2014 22:00 14,8 C 83 % 1017,1 hPa 0,0 l/m 0,1 km/h N 11,8 C 14,8 C 2,0 km/h
17.09.2014 23:00 14,4 C 84 % 1017,0 hPa 0,0 l/m 0,3 km/h N 11,8 C 14,4 C 3,6 km/h
18.09.2014 00:00 13,9 C 84 % 1016,7 hPa 0,0 l/m 0,1 km/h N 11,2 C 13,9 C 1,2 km/h
18.09.2014 01:00 13,0 C 85 % 1016,7 hPa 0,0 l/m 0,0 km/h N 10,4 C 13,0 C 0,4 km/h
18.09.2014 02:00 12,8 C 84 % 1016,5 hPa 0,0 l/m 0,3 km/h N 10,2 C 12,8 C 3,6 km/h
18.09.2014 03:00 13,2 C 84 % 1016,4 hPa 0,0 l/m 0,8 km/h N 10,6 C 13,2 C 5,6 km/h
18.09.2014 04:00 13,3 C 82 % 1016,4 hPa 0,0 l/m 0,2 km/h N 10,3 C 13,3 C 2,8 km/h
18.09.2014 05:00 12,3 C 82 % 1016,5 hPa 0,0 l/m 0,0 km/h N 9,3 C 12,3 C 1,2 km/h
18.09.2014 06:00 12,3 C 83 % 1016,6 hPa 0,0 l/m 0,9 km/h N 9,5 C 12,3 C 3,2 km/h
18.09.2014 07:00 13,5 C 81 % 1016,8 hPa 0,0 l/m 4,2 km/h N 10,3 C 13,5 C 4,8 km/h
18.09.2014 08:00 15,1 C 77 % 1016,9 hPa 0,0 l/m 3,1 km/h N 11,0 C 15,1 C 15,0 km/h
18.09.2014 09:00 17,7 C 68 % 1017,1 hPa 0,0 l/m 8,0 km/h N 11,6 C 16,9 C 22,9 km/h
18.09.2014 10:00 19,3 C 61 % 1017,2 hPa 0,0 l/m 8,9 km/h N 11,7 C 18,3 C 24,1 km/h
18.09.2014 11:00 20,3 C 58 % 1017,1 hPa 0,0 l/m 9,9 km/h N 11,6 C 19,0 C 27,0 km/h
18.09.2014 12:00 20,8 C 56 % 1017,1 hPa 0,0 l/m 11,2 km/h N 11,6 C 19,2 C 28,6 km/h
18.09.2014 13:00 20,6 C 57 % 1016,9 hPa 0,0 l/m 10,3 km/h N 11,8 C 19,3 C 28,6 km/h
18.09.2014 14:00 21,0 C 57 % 1016,6 hPa 0,0 l/m 10,2 km/h N 12,2 C 19,7 C 26,6 km/h
18.09.2014 15:00 20,8 C 57 % 1016,1 hPa 0,0 l/m 9,9 km/h N 12,0 C 19,6 C 24,9 km/h
18.09.2014 16:00 20,8 C 58 % 1015,9 hPa 0,0 l/m 8,0 km/h N 12,3 C 20,2 C 22,5 km/h
18.09.2014 17:00 20,5 C 61 % 1015,9 hPa 0,0 l/m 7,7 km/h N 12,6 C 20,0 C 21,7 km/h
18.09.2014 18:00 19,6 C 64 % 1016,2 hPa 0,0 l/m 4,2 km/h N 12,5 C 19,6 C 16,5 km/h
18.09.2014 19:00 18,5 C 68 % 1016,4 hPa 0,0 l/m 2,7 km/h N 12,4 C 18,5 C 12,9 km/h
18.09.2014 20:00 17,6 C 71 % 1016,5 hPa 0,0 l/m 1,3 km/h N 12,1 C 17,6 C 8,0 km/h
18.09.2014 21:00 16,6 C 74 % 1016,5 hPa 0,0 l/m 0,9 km/h N 12,0 C 16,6 C 6,0 km/h
18.09.2014 22:00 16,4 C 76 % 1016,5 hPa 0,0 l/m 1,8 km/h N 12,1 C 16,4 C 8,1 km/h
18.09.2014 23:00 15,4 C 79 % 1016,5 hPa 0,0 l/m 0,0 km/h N 11,7 C 15,4 C 1,6 km/h
19.09.2014 00:00 14,3 C 82 % 1016,3 hPa 0,0 l/m 0,0 km/h N 11,1 C 14,3 C 1,6 km/h
19.09.2014 01:00 14,0 C 84 % 1015,8 hPa 0,0 l/m 0,2 km/h N 11,3 C 14,0 C 2,8 km/h
19.09.2014 02:00 13,8 C 84 % 1015,5 hPa 0,0 l/m 0,5 km/h N 11,2 C 13,8 C 6,0 km/h
19.09.2014 03:00 13,7 C 84 % 1015,3 hPa 0,0 l/m 0,3 km/h N 11,1 C 13,7 C 3,2 km/h
19.09.2014 04:00 13,1 C 84 % 1015,1 hPa 0,0 l/m 0,0 km/h N 10,4 C 13,1 C 0,0 km/h
19.09.2014 05:00 12,7 C 84 % 1015,2 hPa 0,0 l/m 0,0 km/h N 10,1 C 12,7 C 0,0 km/h
19.09.2014 06:00 12,0 C 84 % 1015,5 hPa 0,0 l/m 0,0 km/h N 9,4 C 12,0 C 0,0 km/h
19.09.2014 07:00 11,4 C 84 % 1016,0 hPa 0,0 l/m 0,0 km/h N 8,7 C 11,4 C 0,0 km/h
19.09.2014 08:00 12,8 C 81 % 1016,3 hPa 0,0 l/m 0,0 km/h N 9,6 C 12,8 C 0,4 km/h
19.09.2014 09:00 14,3 C 80 % 1016,6 hPa 0,0 l/m 0,1 km/h N 10,9 C 14,3 C 2,0 km/h
19.09.2014 10:00 15,1 C 82 % 1016,8 hPa 0,0 l/m 0,6 km/h N 12,0 C 15,1 C 5,6 km/h
19.09.2014 11:00 15,9 C 84 % 1016,9 hPa 0,0 l/m 0,6 km/h N 13,2 C 15,9 C 4,8 km/h
19.09.2014 12:00 17,0 C 83 % 1016,8 hPa 0,0 l/m 0,7 km/h N 14,1 C 17,0 C 6,8 km/h
19.09.2014 13:00 18,8 C 79 % 1016,5 hPa 0,0 l/m 1,1 km/h N 15,1 C 18,8 C 7,2 km/h
19.09.2014 14:00 20,6 C 75 % 1016,0 hPa 0,0 l/m 1,4 km/h N 16,0 C 20,6 C 8,9 km/h
19.09.2014 15:00 21,2 C 71 % 1015,6 hPa 0,0 l/m 1,7 km/h N 15,7 C 21,2 C 9,3 km/h
19.09.2014 16:00 21,2 C 71 % 1015,4 hPa 0,0 l/m 1,7 km/h N 15,8 C 21,2 C 8,5 km/h
19.09.2014 17:00 21,3 C 72 % 1015,0 hPa 0,0 l/m 2,2 km/h N 16,1 C 21,3 C 10,1 km/h
19.09.2014 18:00 20,6 C 75 % 1014,9 hPa 0,0 l/m 0,4 km/h N 16,1 C 20,6 C 4,8 km/h
19.09.2014 19:00 19,2 C 77 % 1014,8 hPa 0,0 l/m 0,0 km/h N 15,1 C 19,2 C 0,0 km/h
19.09.2014 20:00 17,3 C 82 % 1015,2 hPa 0,0 l/m 0,0 km/h N 14,1 C 17,3 C 0,0 km/h
19.09.2014 21:00 16,2 C 84 % 1015,2 hPa 0,0 l/m 0,0 km/h N 13,4 C 16,2 C 0,0 km/h
19.09.2014 22:00 15,4 C 84 % 1015,0 hPa 0,0 l/m 0,0 km/h N 12,7 C 15,4 C 0,0 km/h
19.09.2014 23:00 14,8 C 84 % 1014,9 hPa 0,0 l/m 0,0 km/h N 12,1 C 14,8 C 0,0 km/h
20.09.2014 00:00 14,5 C 83 % 1014,7 hPa 0,0 l/m 0,0 km/h N 11,6 C 14,5 C 0,0 km/h
20.09.2014 01:00 14,7 C 82 % 1014,7 hPa 0,0 l/m 0,1 km/h N 11,5 C 14,7 C 1,2 km/h
20.09.2014 02:00 15,4 C 80 % 1015,1 hPa 0,0 l/m 0,3 km/h N 12,0 C 15,4 C 4,0 km/h
20.09.2014 03:00 15,6 C 80 % 1014,8 hPa 0,0 l/m 0,0 km/h N 12,0 C 15,6 C 1,6 km/h
20.09.2014 04:00 15,3 C 80 % 1014,4 hPa 0,0 l/m 0,1 km/h N 11,9 C 15,3 C 0,8 km/h
20.09.2014 05:00 14,9 C 80 % 1014,5 hPa 0,0 l/m 0,0 km/h N 11,5 C 14,9 C 0,0 km/h
20.09.2014 06:00 13,7 C 81 % 1014,8 hPa 0,0 l/m 0,0 km/h N 10,5 C 13,7 C 0,0 km/h
20.09.2014 07:00 13,2 C 80 % 1015,0 hPa 0,0 l/m 0,0 km/h N 9,8 C 13,2 C 0,0 km/h
20.09.2014 08:00 14,7 C 78 % 1014,8 hPa 0,0 l/m 0,0 km/h N 10,8 C 14,7 C 0,4 km/h
20.09.2014 09:00 17,5 C 76 % 1014,8 hPa 0,0 l/m 0,3 km/h N 13,2 C 17,5 C 3,6 km/h
20.09.2014 10:00 20,3 C 81 % 1014,8 hPa 0,0 l/m 0,2 km/h N 16,9 C 20,3 C 3,6 km/h
20.09.2014 11:00 23,3 C 68 % 1014,1 hPa 0,0 l/m 2,3 km/h N 16,9 C 23,3 C 9,3 km/h
20.09.2014 12:00 24,2 C 62 % 1014,2 hPa 0,0 l/m 2,3 km/h N 16,4 C 24,2 C 11,7 km/h
20.09.2014 13:00 25,0 C 60 % 1013,8 hPa 0,0 l/m 1,9 km/h N 16,7 C 25,0 C 10,1 km/h
20.09.2014 14:00 25,2 C 64 % 1013,2 hPa 0,0 l/m 1,0 km/h N 17,9 C 25,2 C 7,6 km/h
20.09.2014 15:00 25,1 C 63 % 1012,6 hPa 0,0 l/m 1,8 km/h N 17,6 C 25,1 C 9,3 km/h
20.09.2014 16:00 24,7 C 65 % 1012,2 hPa 0,0 l/m 1,0 km/h N 17,5 C 24,7 C 6,4 km/h
20.09.2014 17:00 24,0 C 66 % 1012,2 hPa 0,0 l/m 1,6 km/h N 17,2 C 24,0 C 7,6 km/h
20.09.2014 18:00 22,9 C 71 % 1012,4 hPa 0,0 l/m 0,1 km/h N 17,3 C 22,9 C 1,6 km/h
20.09.2014 19:00 21,1 C 76 % 1012,6 hPa 0,0 l/m 0,0 km/h N 16,7 C 21,1 C 1,2 km/h
20.09.2014 20:00 20,0 C 80 % 1012,9 hPa 0,0 l/m 0,0 km/h N 16,4 C 20,0 C 0,8 km/h
20.09.2014 21:00 19,8 C 79 % 1013,0 hPa 0,0 l/m 1,6 km/h N 15,9 C 19,8 C 8,5 km/h
20.09.2014 22:00 20,5 C 76 % 1012,9 hPa 0,0 l/m 0,7 km/h N 16,1 C 20,5 C 7,2 km/h
20.09.2014 23:00 20,2 C 76 % 1012,8 hPa 0,0 l/m 0,3 km/h N 15,7 C 20,2 C 5,6 km/h
21.09.2014 00:00 19,0 C 80 % 1012,8 hPa 0,0 l/m 0,1 km/h N 15,4 C 19,0 C 2,0 km/h
21.09.2014 01:00 17,9 C 83 % 1012,7 hPa 0,0 l/m 0,0 km/h N 14,9 C 17,9 C 0,8 km/h
21.09.2014 02:00 18,5 C 83 % 1012,6 hPa 0,0 l/m 2,4 km/h N 15,5 C 18,5 C 12,9 km/h
21.09.2014 03:00 19,0 C 80 % 1012,7 hPa 0,0 l/m 1,0 km/h N 15,4 C 19,0 C 7,2 km/h
21.09.2014 04:00 18,8 C 80 % 1012,7 hPa 0,0 l/m 3,7 km/h N 15,3 C 18,8 C 14,5 km/h
21.09.2014 05:00 18,9 C 80 % 1012,5 hPa 0,0 l/m 5,9 km/h N 15,3 C 18,8 C 20,1 km/h
21.09.2014 06:00 18,9 C 79 % 1012,4 hPa 0,0 l/m 6,3 km/h N 15,0 C 18,7 C 22,9 km/h
21.09.2014 07:00 18,8 C 79 % 1012,6 hPa 0,0 l/m 7,3 km/h N 15,0 C 18,4 C 22,5 km/h
21.09.2014 08:00 19,7 C 76 % 1012,4 hPa 0,0 l/m 10,0 km/h N 15,3 C 18,3 C 25,3 km/h
21.09.2014 09:00 20,8 C 72 % 1012,3 hPa 0,0 l/m 13,5 km/h N 15,5 C 18,6 C 28,6 km/h
21.09.2014 10:00 22,1 C 68 % 1012,4 hPa 0,0 l/m 7,8 km/h N 16,0 C 21,4 C 21,3 km/h
21.09.2014 11:00 23,0 C 66 % 1012,1 hPa 0,0 l/m 5,2 km/h N 16,3 C 23,0 C 18,1 km/h
21.09.2014 12:00 24,2 C 62 % 1011,9 hPa 0,0 l/m 5,4 km/h N 16,5 C 24,2 C 20,1 km/h
21.09.2014 13:00 24,2 C 59 % 1011,3 hPa 0,0 l/m 8,2 km/h N 15,7 C 23,7 C 23,3 km/h
21.09.2014 14:00 23,6 C 61 % 1010,9 hPa 0,0 l/m 5,5 km/h N 15,6 C 23,4 C 20,9 km/h
21.09.2014 15:00 23,0 C 63 % 1010,5 hPa 0,0 l/m 8,3 km/h N 15,4 C 22,4 C 27,8 km/h
21.09.2014 16:00 21,3 C 65 % 1010,4 hPa 0,0 l/m 6,1 km/h N 14,5 C 21,2 C 23,3 km/h
21.09.2014 17:00 20,8 C 67 % 1010,1 hPa 0,0 l/m 6,4 km/h N 14,5 C 20,5 C 24,1 km/h
21.09.2014 18:00 20,4 C 69 % 1009,8 hPa 0,0 l/m 3,7 km/h N 14,5 C 20,4 C 15,7 km/h
21.09.2014 19:00 19,6 C 73 % 1010,0 hPa 0,0 l/m 1,2 km/h N 14,6 C 19,6 C 8,0 km/h
21.09.2014 20:00 19,1 C 75 % 1010,0 hPa 0,0 l/m 1,7 km/h N 14,5 C 19,1 C 10,5 km/h
21.09.2014 21:00 18,3 C 75 % 1009,9 hPa 0,0 l/m 1,4 km/h N 13,7 C 18,3 C 10,4 km/h
21.09.2014 22:00 18,0 C 72 % 1009,6 hPa 0,0 l/m 4,3 km/h N 12,8 C 18,0 C 18,1 km/h
21.09.2014 23:00 17,9 C 72 % 1009,4 hPa 0,0 l/m 4,8 km/h N 12,8 C 17,9 C 19,3 km/h
Min-Datum _ 17.09.14 17.09.14 21.09.14 - 15.09.14 - 17.09.14 17.09.14 15.09.14
_ Min-Zeit 05:15 14:30 23:30 - 07:15 - 05:15 05:15 18:15
Minimum _ 11,1 C 54 % 1009,3 hPa - 0,0 km/h - 8,3 C 11,1 C 0,0 km/h
Max-Datum _ 20.09.14 17.09.14 16.09.14 17.09.14 21.09.14 - 20.09.14 20.09.14 18.09.14
_ Max-Zeit 14:00 00:30 11:45 06:00 09:15 - 10:45 13:45 12:00
Maximum _ 25,6 C 85 % 1018,8 hPa 0,3 l/m 14,9 km/h
N
- 18,4 C 25,4 C 32,2 km/h
N
Durchschnitt _ 17,6 C 76 % 1015,6 hPa #0,3 l/m 2,0 km/h N 13,2 C 17,5 C 7,9 km/h